Time;durP1;ratioP1;P1;durP2;ratioP2;P2;SDS_P1;SDS_P2;PMS_P1;PMS_P2;Temp;Humidity;BMP_temperature;BMP_pressure;BME280_temperature;BME280_humidity;BME280_pressure;Samples;Min_cycle;Max_cycle;Signal;HPM_P1;HPM_P2
2022/08/12 00:43:09;;;;;;;;;16.00;15.60;;;;;28.40;28.23;101003.69;2103174;28;47780;-63
2022/08/12 00:44:13;;;;;;;;;17.40;16.20;;;;;28.38;27.78;100998.38;2103078;28;47570;-64
2022/08/12 00:45:14;;;;;;;;;12.00;12.00;;;;;28.37;27.71;101004.00;2102938;28;48429;-64
2022/08/12 00:46:30;;;;;;;;;18.50;16.75;;;;;28.34;27.67;101002.41;2103458;28;47336;-63
2022/08/12 00:47:34;;;;;;;;;13.40;13.00;;;;;28.32;28.17;100998.06;2101775;28;47523;-63
2022/08/12 00:48:36;;;;;;;;;17.80;16.40;;;;;28.31;28.08;100996.34;2103352;28;47442;-63
2022/08/12 00:49:37;;;;;;;;;15.40;15.40;;;;;28.29;27.72;101010.13;2094715;28;47235;-63
2022/08/12 00:50:41;;;;;;;;;16.00;15.00;;;;;28.29;28.05;100998.34;2094933;28;47523;-64
2022/08/12 00:53:02;;;;;;;;;16.00;14.80;;;;;28.27;28.21;100989.47;2102946;28;47532;-64
2022/08/12 00:54:03;;;;;;;;;19.00;17.50;;;;;28.26;27.89;101001.34;2103236;28;47469;-64
2022/08/12 00:55:04;;;;;;;;;17.50;17.50;;;;;28.24;28.20;100996.03;2094400;28;47554;-63
2022/08/12 00:56:05;;;;;;;;;16.40;15.80;;;;;28.23;28.29;100990.72;2094821;28;47346;-63
2022/08/12 00:57:10;;;;;;;;;16.20;15.00;;;;;28.21;28.14;100999.06;2103485;28;47762;-64
2022/08/12 00:58:15;;;;;;;;;18.00;16.60;;;;;28.22;28.20;100994.44;2103687;28;48112;-65
2022/08/12 00:59:16;;;;;;;;;15.00;15.00;;;;;28.20;27.89;100989.09;2103384;28;47813;-65
2022/08/12 01:00:21;;;;;;;;;15.00;15.00;;;;;28.19;28.30;100989.25;2102834;28;47458;-64
2022/08/12 01:01:22;;;;;;;;;17.40;17.20;;;;;28.18;28.18;100987.53;2103007;28;47517;-64
2022/08/12 01:02:36;;;;;;;;;14.60;14.60;;;;;28.17;28.05;100986.66;2103563;28;47743;-65
2022/08/12 01:12:04;;;;;;;;;16.40;16.40;;;;;28.12;28.82;100981.63;2104638;28;47334;-63
2022/08/12 01:13:06;;;;;;;;;18.80;17.00;;;;;28.12;28.20;100986.25;2104145;28;46467;-63
2022/08/12 01:14:06;;;;;;;;;14.60;13.60;;;;;28.12;28.75;100986.25;2104462;27;48213;-63
2022/08/12 01:15:09;;;;;;;;;17.25;16.00;;;;;28.11;28.57;100982.66;2104205;27;48148;-63
2022/08/12 01:16:10;;;;;;;;;17.20;16.20;;;;;28.10;28.13;100983.66;2103934;27;47967;-64
2022/08/12 01:17:12;;;;;;;;;10.20;10.20;;;;;28.10;28.07;100989.09;2104093;27;47143;-63
2022/08/12 01:18:13;;;;;;;;;17.00;16.00;;;;;28.08;28.31;100990.25;2104232;27;47481;-62
2022/08/12 01:19:16;;;;;;;;;17.60;17.60;;;;;28.07;28.68;100983.91;2104273;27;47988;-63
2022/08/12 01:20:32;;;;;;;;;15.40;15.40;;;;;28.07;28.51;100986.63;2103523;28;47487;-62
2022/08/12 01:21:50;;;;;;;;;18.20;17.40;;;;;28.06;28.34;100984.91;2102675;28;47980;-62
2022/08/12 01:23:14;;;;;;;;;16.40;15.80;;;;;28.06;28.81;100984.06;2104455;27;47726;-63
2022/08/12 01:24:47;;;;;;;;;18.40;18.40;;;;;28.05;28.36;100985.06;2104323;28;47660;-64
2022/08/12 01:25:51;;;;;;;;;17.20;17.20;;;;;28.04;28.86;100986.06;2090954;28;47691;-64
2022/08/12 01:26:54;;;;;;;;;18.00;18.00;;;;;28.02;28.72;100988.06;2094512;28;48096;-64
2022/08/12 01:27:57;;;;;;;;;17.00;17.00;;;;;27.99;28.51;100983.75;2094318;28;48082;-64
2022/08/12 01:28:58;;;;;;;;;16.40;15.40;;;;;27.96;28.52;100984.06;2094398;28;47958;-63
2022/08/12 01:30:02;;;;;;;;;20.00;18.60;;;;;27.95;29.00;100986.88;2094600;28;48044;-63
2022/08/12 01:31:04;;;;;;;;;15.80;15.80;;;;;27.93;28.59;100989.75;2094464;28;47538;-64
2022/08/12 01:32:07;;;;;;;;;16.60;16.60;;;;;27.93;29.06;100988.91;2094167;28;45970;-63
2022/08/12 01:33:14;;;;;;;;;16.40;16.40;;;;;27.94;28.57;100991.47;2086100;28;47624;-63
2022/08/12 01:34:21;;;;;;;;;16.60;16.20;;;;;27.93;28.65;100980.72;2086881;28;47718;-63
2022/08/12 01:35:23;;;;;;;;;14.80;14.80;;;;;27.91;28.59;100989.03;2094698;28;46599;-65
2022/08/12 01:36:25;;;;;;;;;17.20;16.40;;;;;27.90;28.64;100981.00;2086280;28;47875;-63
2022/08/12 01:37:29;;;;;;;;;18.20;15.20;;;;;27.88;28.61;100981.13;2084922;28;47161;-62
2022/08/12 01:38:34;;;;;;;;;17.80;17.80;;;;;27.87;28.73;100984.88;2094877;28;48204;-63
2022/08/12 01:39:42;;;;;;;;;16.00;16.00;;;;;27.85;28.79;100982.28;2094666;28;47790;-62
2022/08/12 01:40:45;;;;;;;;;18.20;16.60;;;;;27.85;28.86;100976.81;2093997;28;47269;-64
2022/08/12 01:41:57;;;;;;;;;17.60;17.20;;;;;27.84;28.55;100980.56;2094672;28;47441;-64
2022/08/12 01:43:20;;;;;;;;;17.80;15.60;;;;;27.85;28.55;100984.16;2078346;28;46406;-64
2022/08/12 01:44:22;;;;;;;;;17.20;17.20;;;;;27.84;28.52;100977.84;2088090;28;47807;-63
2022/08/12 01:45:24;;;;;;;;;16.00;14.60;;;;;27.85;28.82;100975.97;2095458;28;48012;-64
2022/08/12 01:46:36;;;;;;;;;16.80;16.20;;;;;27.85;28.72;100975.97;2095999;28;47112;-64
2022/08/12 01:47:49;;;;;;;;;14.00;14.00;;;;;27.85;28.48;100975.97;2095473;28;47267;-64
2022/08/12 01:49:06;;;;;;;;;17.00;16.20;;;;;27.85;28.65;100978.69;2095857;28;47752;-64
2022/08/12 01:50:38;;;;;;;;;16.00;16.00;;;;;27.83;28.81;100978.84;2095891;28;47423;-63
2022/08/12 01:51:41;;;;;;;;;16.60;14.80;;;;;27.81;28.33;100975.34;2096445;28;48040;-63
2022/08/12 01:53:10;;;;;;;;;18.00;16.60;;;;;27.79;28.28;100982.81;2100338;28;47276;-64
2022/08/12 01:54:17;;;;;;;;;17.60;16.60;;;;;27.78;28.65;100977.50;2088298;28;47863;-62
2022/08/12 01:55:22;;;;;;;;;17.80;17.60;;;;;27.76;28.90;100979.50;2093129;28;47723;-62
2022/08/12 01:56:25;;;;;;;;;16.60;16.60;;;;;27.75;29.10;100981.38;2095735;28;46196;-64
2022/08/12 01:57:28;;;;;;;;;16.20;16.20;;;;;27.74;28.47;100973.34;2096179;28;48142;-64
2022/08/12 01:59:45;;;;;;;;;19.60;18.60;;;;;27.74;28.63;100978.78;2094090;28;47974;-63
2022/08/12 02:00:04;;;;;;;;;18.40;18.40;;;;;27.72;28.84;100981.66;2091157;28;47666;-63
2022/08/12 02:01:09;;;;;;;;;15.40;15.40;;;;;27.71;28.52;100965.44;2095931;28;47375;-63
2022/08/12 02:02:15;;;;;;;;;15.80;15.80;;;;;27.70;28.38;100978.22;2095756;28;47737;-63
2022/08/12 02:11:21;;;;;;;;;18.00;15.80;;;;;27.63;28.76;100966.09;2105079;28;47747;-64
2022/08/12 02:12:43;;;;;;;;;15.40;14.40;;;;;27.61;28.47;100964.50;2105408;27;47641;-63
2022/08/12 02:13:54;;;;;;;;;14.20;14.20;;;;;27.60;29.16;100969.09;2096854;28;47575;-64
2022/08/12 02:15:03;;;;;;;;;16.80;16.80;;;;;27.60;28.68;100960.91;2104845;28;47472;-63
2022/08/12 02:16:17;;;;;;;;;14.60;13.60;;;;;27.61;28.75;100959.91;2105142;27;47617;-64
2022/08/12 02:17:53;;;;;;;;;18.00;18.00;;;;;27.60;29.41;100960.06;2105117;27;47934;-64
2022/08/12 02:19:19;;;;;;;;;18.40;18.40;;;;;27.60;28.78;100965.50;2105357;27;47880;-63
2022/08/12 02:20:23;;;;;;;;;15.80;15.80;;;;;27.61;29.15;100956.31;2096897;28;47329;-63
2022/08/12 02:21:29;;;;;;;;;12.40;12.00;;;;;27.62;28.76;100958.03;2094942;28;47384;-63
2022/08/12 02:22:33;;;;;;;;;16.80;16.80;;;;;27.62;28.95;100955.31;2094064;28;47544;-63
2022/08/12 02:23:36;;;;;;;;;18.40;18.00;;;;;27.63;28.62;100959.75;2096809;28;47653;-63
2022/08/12 02:24:38;;;;;;;;;14.80;13.20;;;;;27.61;28.48;100956.31;2104429;28;47270;-63
2022/08/12 02:25:44;;;;;;;;;16.80;16.20;;;;;27.60;28.87;100955.47;2105383;27;47388;-64
2022/08/12 02:26:47;;;;;;;;;15.60;15.60;;;;;27.60;28.46;100962.78;2105391;27;46996;-64
2022/08/12 02:27:50;;;;;;;;;15.00;14.60;;;;;27.58;28.46;100954.75;2105086;27;48118;-65
2022/08/12 02:28:51;;;;;;;;;15.40;13.80;;;;;27.59;28.49;100961.06;2105753;27;47746;-64
2022/08/12 02:29:51;;;;;;;;;15.50;14.75;;;;;27.58;28.64;100959.31;2105244;27;47445;-62
2022/08/12 02:30:53;;;;;;;;;16.00;16.00;;;;;27.57;28.94;100963.91;2104990;27;47526;-64
2022/08/12 02:31:54;;;;;;;;;16.00;15.40;;;;;27.56;28.44;100963.03;2105115;28;47766;-64
2022/08/12 02:32:55;;;;;;;;;16.25;16.25;;;;;27.56;29.18;100957.56;2105202;28;47937;-64
2022/08/12 02:33:57;;;;;;;;;15.60;15.60;;;;;27.56;28.44;100960.31;2105086;27;47559;-64
2022/08/12 02:34:58;;;;;;;;;17.00;17.00;;;;;27.55;28.89;100952.25;2105427;27;46037;-64
2022/08/12 02:36:01;;;;;;;;;14.25;14.25;;;;;27.56;28.90;100959.44;2105015;27;47963;-64
2022/08/12 02:37:02;;;;;;;;;14.80;14.80;;;;;27.55;28.85;100960.44;2104991;27;47847;-62
2022/08/12 02:38:06;;;;;;;;;15.20;15.00;;;;;27.53;28.70;100955.13;2105054;27;47355;-64
2022/08/12 02:39:14;;;;;;;;;16.80;14.80;;;;;27.54;29.12;100958.72;2105519;27;48160;-63
2022/08/12 02:40:16;;;;;;;;;11.20;11.20;;;;;27.52;29.19;100956.13;2105137;27;47685;-63
2022/08/12 02:41:20;;;;;;;;;14.40;14.40;;;;;27.52;28.96;100960.72;2105234;27;47598;-64
2022/08/12 02:42:23;;;;;;;;;14.60;14.60;;;;;27.51;29.34;100961.72;2105192;27;48134;-64
2022/08/12 02:43:47;;;;;;;;;15.40;15.20;;;;;27.49;29.29;100956.41;2104889;27;48030;-63
2022/08/12 02:44:51;;;;;;;;;13.40;13.40;;;;;27.48;28.93;100956.56;2104927;27;46974;-63
2022/08/12 02:45:55;;;;;;;;;15.80;14.80;;;;;27.46;29.09;100955.81;2104979;27;47716;-65
2022/08/12 02:47:02;;;;;;;;;14.80;14.80;;;;;27.44;29.48;100955.06;2104151;28;47760;-63
2022/08/12 02:48:06;;;;;;;;;15.60;15.60;;;;;27.42;28.75;100951.63;2104516;28;46552;-64
2022/08/12 02:49:21;;;;;;;;;15.20;14.80;;;;;27.39;29.38;100944.59;2103093;28;47867;-63
2022/08/12 02:50:30;;;;;;;;;15.20;15.20;;;;;27.39;29.42;100951.91;2104783;27;48124;-63
2022/08/12 02:51:33;;;;;;;;;17.80;17.80;;;;;27.38;28.92;100950.19;2105208;27;47244;-63
2022/08/12 02:52:35;;;;;;;;;14.80;14.00;;;;;27.37;28.95;100943.00;2104982;27;47301;-64
2022/08/12 02:53:37;;;;;;;;;15.80;14.80;;;;;27.36;29.10;100952.19;2104719;27;47773;-63
2022/08/12 02:54:40;;;;;;;;;14.00;14.00;;;;;27.35;29.16;100945.88;2104354;28;47886;-64
2022/08/12 02:55:44;;;;;;;;;18.40;17.60;;;;;27.34;29.31;100956.91;2096368;28;47289;-64
2022/08/12 02:56:44;;;;;;;;;17.00;17.00;;;;;27.34;29.37;100948.75;2096021;28;47266;-63
2022/08/12 02:57:45;;;;;;;;;15.50;15.50;;;;;27.31;29.11;100947.13;2103791;28;47738;-65
2022/08/12 02:58:46;;;;;;;;;17.75;15.25;;;;;27.28;29.75;100944.69;2104532;28;47327;-63
2022/08/12 02:59:48;;;;;;;;;14.75;14.25;;;;;27.27;29.90;100942.94;2103921;28;47938;-63
2022/08/12 03:00:48;;;;;;;;;16.60;16.40;;;;;27.27;29.83;100954.72;2104027;28;47365;-63
2022/08/12 03:01:53;;;;;;;;;14.25;14.25;;;;;27.26;29.58;100947.53;2104759;27;47834;-64
2022/08/12 03:02:58;;;;;;;;;15.20;15.20;;;;;27.27;29.33;100951.13;2105216;27;47695;-63
2022/08/12 03:04:01;;;;;;;;;14.40;14.40;;;;;27.25;29.45;100944.94;2104961;27;47940;-63
2022/08/12 03:05:03;;;;;;;;;14.40;14.40;;;;;27.25;29.03;100943.09;2104879;27;47841;-63
2022/08/12 03:06:20;;;;;;;;;14.00;14.00;;;;;27.25;29.50;100944.94;2104851;27;47590;-62
2022/08/12 03:07:23;;;;;;;;;15.40;15.40;;;;;27.24;29.14;100946.81;2112928;27;48012;-62
2022/08/12 03:08:30;;;;;;;;;14.60;14.60;;;;;27.23;29.83;100945.09;2103405;28;47616;-64
2022/08/12 03:09:34;;;;;;;;;15.40;15.40;;;;;27.22;29.21;100946.09;2103839;28;47760;-64
2022/08/12 03:10:40;;;;;;;;;16.20;14.80;;;;;27.22;29.09;100946.09;2104678;27;47529;-63
2022/08/12 03:11:53;;;;;;;;;15.60;15.60;;;;;27.22;29.77;100950.69;2104875;27;47457;-63
2022/08/12 03:12:57;;;;;;;;;17.80;17.20;;;;;27.18;29.92;100941.88;2105352;27;48089;-63
2022/08/12 03:14:00;;;;;;;;;18.00;18.00;;;;;27.17;29.42;100945.63;2104700;27;47836;-63
2022/08/12 03:15:05;;;;;;;;;13.40;13.40;;;;;27.16;29.66;100946.63;2104876;27;47809;-63
2022/08/12 03:16:06;;;;;;;;;15.80;15.80;;;;;27.15;29.22;100953.06;2105267;27;46753;-62
2022/08/12 03:17:24;;;;;;;;;13.40;13.40;;;;;27.15;29.79;100944.88;2105202;27;48086;-62
2022/08/12 03:18:30;;;;;;;;;14.00;14.00;;;;;27.15;29.37;100944.88;2096308;28;48189;-64
2022/08/12 03:19:31;;;;;;;;;14.20;14.20;;;;;27.14;29.39;100951.34;2102984;28;47988;-63
2022/08/12 03:20:36;;;;;;;;;16.25;16.25;;;;;27.14;29.39;100953.19;2104614;27;48297;-64
2022/08/12 03:21:38;;;;;;;;;13.40;13.40;;;;;27.11;29.97;100954.34;2104276;28;47942;-64
2022/08/12 03:22:41;;;;;;;;;16.80;14.80;;;;;27.11;29.21;100948.88;2104319;28;47270;-64
2022/08/12 03:23:44;;;;;;;;;15.60;15.60;;;;;27.11;29.55;100953.47;2104948;27;47289;-64
2022/08/12 03:24:44;;;;;;;;;17.00;16.60;;;;;27.11;29.48;100954.34;2104611;27;47910;-64
2022/08/12 03:25:48;;;;;;;;;15.00;13.75;;;;;27.11;29.80;100957.06;2104750;27;47382;-64
2022/08/12 03:26:53;;;;;;;;;19.00;17.60;;;;;27.10;30.10;100949.91;2104868;27;47984;-64
2022/08/12 03:27:56;;;;;;;;;15.80;15.80;;;;;27.10;29.77;100952.63;2103096;28;48012;-64
2022/08/12 03:28:57;;;;;;;;;15.80;15.00;;;;;27.09;29.47;100948.16;2104706;27;47692;-64
2022/08/12 03:29:58;;;;;;;;;9.40;9.40;;;;;27.08;29.88;100946.44;2103677;28;46062;-64
2022/08/12 03:31:07;;;;;;;;;16.25;15.25;;;;;27.08;29.48;100943.72;2103561;28;47453;-64
2022/08/12 03:32:07;;;;;;;;;12.80;12.80;;;;;27.07;29.87;100950.16;2104792;27;47359;-63
2022/08/12 03:33:12;;;;;;;;;16.75;15.50;;;;;27.07;29.16;100943.84;2104767;27;47626;-63
2022/08/12 03:34:22;;;;;;;;;13.20;13.20;;;;;27.07;29.17;100946.59;2104502;27;46092;-64
2022/08/12 03:35:26;;;;;;;;;15.00;15.00;;;;;27.07;29.53;100943.84;2104551;27;48229;-64
2022/08/12 03:36:28;;;;;;;;;14.40;14.40;;;;;27.07;29.47;100952.91;2104873;27;47608;-64
2022/08/12 03:37:29;;;;;;;;;14.40;13.80;;;;;27.07;29.99;100950.16;2104686;27;47784;-64
2022/08/12 03:38:33;;;;;;;;;14.00;14.00;;;;;27.07;29.81;100949.31;2104822;27;47355;-63
2022/08/12 03:42:39;;;;;;;;;15.00;15.00;;;;;27.04;29.49;100942.25;2104535;28;47383;-62
2022/08/12 04:00:24;;;;;;;;;15.20;15.20;;;;;26.92;29.82;100954.16;2104414;27;47692;-64
2022/08/12 04:01:25;;;;;;;;;15.20;14.20;;;;;26.89;29.85;100952.56;2104981;27;45828;-63
2022/08/12 04:02:25;;;;;;;;;16.00;14.80;;;;;26.88;30.15;100959.03;2105008;27;45629;-63
2022/08/12 04:04:45;;;;;;;;;16.20;16.20;;;;;26.83;30.46;100954.97;2104326;28;46396;-63
2022/08/12 04:05:48;;;;;;;;;17.00;17.00;;;;;26.82;29.92;100950.53;2104378;27;47272;-63
2022/08/12 04:06:49;;;;;;;;;17.60;15.60;;;;;26.80;30.00;100953.38;2104471;27;47877;-63
2022/08/12 04:07:51;;;;;;;;;17.00;17.00;;;;;26.80;30.13;100953.38;2104443;27;48038;-63
2022/08/12 04:08:56;;;;;;;;;15.40;15.40;;;;;26.78;30.25;100951.78;2103653;27;47226;-63
2022/08/12 04:09:57;;;;;;;;;17.20;15.60;;;;;26.77;30.66;100958.22;2104245;27;47936;-64
2022/08/12 04:13:36;;;;;;;;;16.40;15.40;;;;;26.72;30.49;100950.44;2104613;28;47681;-64
2022/08/12 04:14:36;;;;;;;;;15.75;15.75;;;;;26.72;30.46;100955.91;2104325;27;47750;-64
2022/08/12 04:15:38;;;;;;;;;18.00;16.75;;;;;26.73;30.12;100954.03;2104507;27;47265;-63
2022/08/12 04:16:39;;;;;;;;;15.20;15.00;;;;;26.72;29.91;100949.59;2103916;28;47912;-62
2022/08/12 04:17:41;;;;;;;;;17.00;17.00;;;;;26.72;29.88;100949.59;2103760;28;48170;-63
2022/08/12 04:18:42;;;;;;;;;19.80;19.00;;;;;26.71;30.55;100948.72;2104446;27;47777;-63
2022/08/12 04:19:46;;;;;;;;;16.20;15.60;;;;;26.69;30.01;100946.13;2104535;27;46779;-63
2022/08/12 04:20:48;;;;;;;;;18.40;17.80;;;;;26.69;30.42;100943.41;2104547;27;47741;-63
2022/08/12 04:21:49;;;;;;;;;17.40;16.40;;;;;26.67;30.20;100952.69;2104422;27;47790;-63
2022/08/12 04:22:53;;;;;;;;;16.00;14.00;;;;;26.67;30.24;100950.81;2104042;27;47496;-63
2022/08/12 04:23:54;;;;;;;;;16.00;16.00;;;;;26.67;30.36;100953.56;2112307;27;47174;-63
2022/08/12 04:24:59;;;;;;;;;14.80;14.80;;;;;26.66;30.21;100953.69;2103737;28;47351;-63
2022/08/12 04:26:00;;;;;;;;;15.80;14.80;;;;;26.65;30.20;100951.97;2103576;28;48311;-64
2022/08/12 04:27:03;;;;;;;;;14.00;13.25;;;;;26.64;30.31;100953.81;2103579;28;47284;-63
2022/08/12 04:28:07;;;;;;;;;16.40;15.80;;;;;26.64;30.63;100951.09;2103835;28;47628;-64
2022/08/12 04:29:09;;;;;;;;;15.60;14.40;;;;;26.63;30.06;100951.22;2104431;27;47778;-63
2022/08/12 04:30:10;;;;;;;;;13.60;13.60;;;;;26.63;30.63;100953.94;2096124;28;48503;-64
2022/08/12 04:31:12;;;;;;;;;17.60;16.00;;;;;26.63;30.09;100951.22;2102131;28;47284;-63
2022/08/12 04:32:12;;;;;;;;;15.80;15.00;;;;;26.63;30.48;100954.81;2094569;28;48183;-64
2022/08/12 04:33:13;;;;;;;;;16.25;15.50;;;;;26.61;30.17;100945.91;2103018;28;47116;-63
2022/08/12 04:34:15;;;;;;;;;16.75;16.75;;;;;26.59;30.27;100950.63;2104184;27;47572;-63
2022/08/12 04:35:16;;;;;;;;;16.60;16.00;;;;;26.57;30.00;100943.59;2104350;27;47873;-64
2022/08/12 04:36:16;;;;;;;;;15.75;14.75;;;;;26.56;30.66;100940.03;2104288;27;47402;-63
2022/08/12 04:37:16;;;;;;;;;15.50;14.75;;;;;26.55;30.34;100948.28;2104114;27;47618;-63
2022/08/12 04:38:18;;;;;;;;;14.75;14.00;;;;;26.53;30.58;100944.84;2104394;27;47390;-63
2022/08/12 04:39:21;;;;;;;;;16.40;16.40;;;;;26.52;30.43;100952.13;2104197;27;47816;-64
2022/08/12 04:40:24;;;;;;;;;18.20;15.60;;;;;26.51;30.66;100952.28;2104324;27;47456;-63
2022/08/12 04:41:26;;;;;;;;;15.60;14.60;;;;;26.48;30.70;100950.69;2104582;27;45697;-63
2022/08/12 04:42:26;;;;;;;;;1.00;0.80;;;;;26.47;30.18;100956.25;2104576;27;47549;-63
2022/08/12 04:43:28;;;;;;;;;13.25;13.00;;;;;26.46;30.84;100952.69;2104168;27;47504;-63
2022/08/12 04:44:30;;;;;;;;;12.60;12.60;;;;;26.45;30.29;100961.84;2104324;27;47807;-63
2022/08/12 04:45:33;;;;;;;;;15.60;15.20;;;;;26.44;30.48;100959.25;2103902;28;47674;-64
2022/08/12 04:46:34;;;;;;;;;16.40;14.60;;;;;26.39;30.86;100949.59;2103678;28;47356;-63
2022/08/12 04:47:34;;;;;;;;;15.00;15.00;;;;;26.41;30.30;100954.91;2103881;27;47775;-63
2022/08/12 04:48:34;;;;;;;;;15.50;14.25;;;;;26.42;30.89;100956.63;2103958;27;47471;-63
2022/08/12 04:49:35;;;;;;;;;13.75;13.75;;;;;26.40;30.19;100953.19;2104093;27;47846;-63
2022/08/12 04:50:37;;;;;;;;;14.00;14.00;;;;;26.40;30.72;100951.31;2104081;28;47309;-63
2022/08/12 04:51:38;;;;;;;;;16.00;15.00;;;;;26.38;30.37;100955.16;2104182;27;47609;-63
2022/08/12 04:52:39;;;;;;;;;15.40;15.40;;;;;26.38;30.84;100956.03;2104280;27;47673;-63
2022/08/12 04:53:40;;;;;;;;;18.50;16.25;;;;;26.35;30.87;100953.53;2104405;27;47784;-63
2022/08/12 04:54:42;;;;;;;;;14.40;14.40;;;;;26.35;30.53;100958.13;2104053;27;47600;-63
2022/08/12 04:55:44;;;;;;;;;14.40;14.40;;;;;26.32;30.97;100953.81;2103501;28;47491;-64
2022/08/12 04:56:45;;;;;;;;;16.40;16.20;;;;;26.33;30.56;100957.41;2103503;28;47872;-63
2022/08/12 04:57:45;;;;;;;;;19.00;14.00;;;;;26.30;31.03;100950.34;2104012;27;47506;-63
2022/08/12 04:58:45;;;;;;;;;14.50;14.50;;;;;26.28;30.63;100954.16;2104143;27;47675;-62
2022/08/12 04:59:46;;;;;;;;;16.00;15.75;;;;;26.28;31.10;100959.63;2106338;27;46134;-66
2022/08/12 05:00:46;;;;;;;;;17.00;14.50;;;;;26.25;31.36;100963.47;2111988;27;47102;-64
2022/08/12 05:01:51;;;;;;;;;19.75;19.50;;;;;26.24;31.34;100959.00;2104061;27;47354;-63
2022/08/12 05:02:51;;;;;;;;;16.00;15.00;;;;;26.22;31.18;100962.88;2103976;27;47504;-64
2022/08/12 05:03:54;;;;;;;;;15.25;15.00;;;;;26.22;31.41;100960.13;2104097;27;47803;-63
2022/08/12 05:04:55;;;;;;;;;15.60;14.40;;;;;26.19;31.33;100963.13;2103843;27;47895;-64
2022/08/12 05:05:56;;;;;;;;;16.00;16.00;;;;;26.19;30.96;100961.28;2104234;27;47501;-64
2022/08/12 05:06:56;;;;;;;;;14.75;13.75;;;;;26.20;31.53;100959.41;2104133;27;47935;-64
2022/08/12 05:07:57;;;;;;;;;18.00;15.00;;;;;26.19;31.48;100964.00;2104051;27;47460;-62
2022/08/12 05:08:59;;;;;;;;;13.40;13.40;;;;;26.20;31.08;100965.72;2103938;27;47475;-63
2022/08/12 05:10:01;;;;;;;;;15.60;14.80;;;;;26.19;30.95;100960.41;2103976;27;47801;-63
2022/08/12 05:11:04;;;;;;;;;17.20;17.20;;;;;26.18;31.32;100962.25;2103735;27;45924;-63
2022/08/12 05:12:06;;;;;;;;;14.60;14.60;;;;;26.17;31.24;100965.09;2104341;27;47680;-64
2022/08/12 05:13:10;;;;;;;;;14.20;14.20;;;;;26.17;31.47;100965.09;2120074;27;48153;-64
2022/08/12 05:14:11;;;;;;;;;16.60;16.60;;;;;26.16;30.97;100966.06;2104513;27;47444;-64
2022/08/12 05:15:15;;;;;;;;;14.80;14.80;;;;;26.13;31.45;100964.47;2094533;28;47060;-64
2022/08/12 05:16:15;;;;;;;;;14.20;13.80;;;;;26.14;31.20;100968.06;2104028;28;48002;-64
2022/08/12 05:17:16;;;;;;;;;14.75;14.75;;;;;26.13;31.44;100966.34;2104051;27;48256;-63
2022/08/12 05:18:16;;;;;;;;;15.75;15.00;;;;;26.13;31.69;100966.34;2103465;28;46431;-63
2022/08/12 05:19:17;;;;;;;;;18.00;17.50;;;;;26.13;31.50;100967.19;2103353;28;47819;-64
2022/08/12 05:20:19;;;;;;;;;17.00;17.00;;;;;26.14;31.77;100973.50;2104364;27;47572;-63
2022/08/12 05:21:20;;;;;;;;;15.60;15.60;;;;;26.15;31.67;100964.34;2105269;27;47597;-63
2022/08/12 05:22:20;;;;;;;;;16.25;16.25;;;;;26.15;31.58;100964.34;2105474;27;47268;-63
2022/08/12 05:23:21;;;;;;;;;16.25;15.00;;;;;26.16;31.44;100963.34;2103931;28;46577;-63
2022/08/12 05:24:21;;;;;;;;;15.60;14.80;;;;;26.16;31.30;100963.34;2104323;28;47841;-63
2022/08/12 05:25:22;;;;;;;;;15.50;14.00;;;;;26.14;31.70;100965.34;2105262;28;48028;-63
2022/08/12 05:26:22;;;;;;;;;13.50;13.00;;;;;26.13;31.30;100958.19;2105792;27;47558;-63
2022/08/12 05:27:22;;;;;;;;;15.50;15.50;;;;;26.13;31.85;100961.75;2103997;28;47418;-63
2022/08/12 05:28:25;;;;;;;;;17.25;16.00;;;;;26.14;31.91;100968.06;2104393;28;47364;-62
2022/08/12 05:29:28;;;;;;;;;14.20;14.20;;;;;26.14;31.91;100974.38;2105913;27;47797;-63
2022/08/12 05:30:35;;;;;;;;;16.00;16.00;;;;;26.13;32.06;100964.47;2105262;27;47992;-64
2022/08/12 05:31:37;;;;;;;;;16.80;14.60;;;;;26.14;31.44;100968.06;2105500;28;47366;-63
2022/08/12 05:32:38;;;;;;;;;16.00;16.00;;;;;26.13;31.43;100964.47;2105992;28;47532;-63
2022/08/12 05:33:39;;;;;;;;;17.25;17.25;;;;;26.13;31.46;100974.50;2105663;28;45934;-63
2022/08/12 05:34:40;;;;;;;;;14.60;14.60;;;;;26.12;31.82;100968.19;2105330;27;47860;-62
2022/08/12 05:35:44;;;;;;;;;16.00;15.25;;;;;26.11;31.71;100975.50;2105094;27;46742;-62
2022/08/12 05:36:44;;;;;;;;;15.20;15.20;;;;;26.12;31.86;100962.75;2105174;28;47096;-65
2022/08/12 05:37:44;;;;;;;;;16.00;15.50;;;;;26.13;31.30;100967.19;2104554;28;47621;-64
2022/08/12 05:38:58;;;;;;;;;14.25;13.50;;;;;26.12;31.54;100965.47;2104985;28;47311;-64
2022/08/12 05:39:58;;;;;;;;;16.60;16.60;;;;;26.12;31.23;100973.63;2105246;27;47822;-62
2022/08/12 05:41:01;;;;;;;;;17.50;15.75;;;;;26.11;31.25;100980.06;2105922;27;47596;-63
2022/08/12 05:42:02;;;;;;;;;14.80;14.80;;;;;26.10;31.90;100968.31;2105163;27;47822;-64
2022/08/12 05:43:03;;;;;;;;;16.40;14.80;;;;;26.10;31.66;100970.19;2105630;27;47859;-63
2022/08/12 05:44:08;;;;;;;;;14.25;14.25;;;;;26.11;31.83;100974.63;2105330;27;48093;-63
2022/08/12 05:45:09;;;;;;;;;13.00;13.00;;;;;26.12;31.14;100979.06;2105496;27;47934;-63
2022/08/12 05:46:09;;;;;;;;;18.00;16.75;;;;;26.15;31.64;100977.94;2112382;27;47352;-63
2022/08/12 05:47:13;;;;;;;;;17.00;17.00;;;;;26.15;31.84;100972.50;2112773;27;47876;-63
2022/08/12 05:48:14;;;;;;;;;15.20;15.00;;;;;26.16;31.68;100977.81;2095651;28;47663;-63
2022/08/12 05:49:15;;;;;;;;;14.80;13.80;;;;;26.17;31.39;100973.25;2096414;28;47591;-63
2022/08/12 05:50:15;;;;;;;;;16.40;15.00;;;;;26.18;31.57;100972.28;2105099;27;47311;-63
2022/08/12 05:51:16;;;;;;;;;14.50;14.25;;;;;26.19;31.67;100974.88;2105532;27;47449;-64
2022/08/12 05:52:17;;;;;;;;;14.00;14.00;;;;;26.19;31.43;100972.16;2102572;28;48102;-64
2022/08/12 05:53:17;;;;;;;;;17.00;17.00;;;;;26.21;31.60;100974.75;2105325;27;47350;-62
2022/08/12 05:54:18;;;;;;;;;14.00;14.00;;;;;26.21;31.27;100970.16;2105501;28;47310;-64
2022/08/12 05:55:19;;;;;;;;;16.75;15.25;;;;;26.24;32.00;100974.47;2105443;27;47515;-63
2022/08/12 05:56:31;;;;;;;;;15.60;15.60;;;;;26.25;31.81;100978.91;2105478;27;46691;-63
2022/08/12 05:57:31;;;;;;;;;14.40;14.40;;;;;26.26;31.72;100981.50;2104058;28;47555;-62
2022/08/12 05:58:33;;;;;;;;;15.00;14.50;;;;;26.26;31.87;100973.34;2103989;28;47247;-63
2022/08/12 05:59:34;;;;;;;;;12.80;12.80;;;;;26.28;31.32;100976.81;2105279;27;47467;-62
2022/08/12 06:00:35;;;;;;;;;16.00;15.75;;;;;26.28;31.52;100978.66;2105070;27;47565;-64
2022/08/12 06:01:36;;;;;;;;;16.00;16.00;;;;;26.29;31.23;100972.22;2105082;27;47951;-64
2022/08/12 06:02:37;;;;;;;;;17.20;16.40;;;;;26.29;31.26;100974.94;2105269;27;47452;-63
2022/08/12 06:03:37;;;;;;;;;17.50;17.50;;;;;26.29;31.70;100974.94;2102731;28;47527;-64
2022/08/12 06:04:39;;;;;;;;;15.25;14.50;;;;;26.30;31.94;100974.84;2105611;27;47733;-64
2022/08/12 06:05:41;;;;;;;;;15.60;15.60;;;;;26.29;31.63;100967.66;2105199;27;48039;-62
2022/08/12 06:06:42;;;;;;;;;15.80;15.80;;;;;26.30;31.89;100973.97;2105246;27;47393;-64
2022/08/12 06:07:44;;;;;;;;;16.75;16.25;;;;;26.30;31.65;100969.41;2105033;27;47452;-64
2022/08/12 06:08:52;;;;;;;;;18.20;16.20;;;;;26.30;31.70;100971.25;2105473;27;47931;-63
2022/08/12 06:09:52;;;;;;;;;14.40;14.40;;;;;26.31;31.55;100973.00;2105225;28;46920;-62
2022/08/12 06:10:55;;;;;;;;;14.50;14.50;;;;;26.32;31.23;100972.00;2105238;27;47767;-63
2022/08/12 06:11:56;;;;;;;;;16.20;15.00;;;;;26.34;31.06;100978.16;2112485;27;48035;-64
2022/08/12 06:12:57;;;;;;;;;15.50;15.50;;;;;26.33;31.57;100973.72;2104220;28;47508;-63
2022/08/12 06:13:57;;;;;;;;;13.25;13.00;;;;;26.32;31.09;100972.00;2104633;28;46723;-63
2022/08/12 06:14:58;;;;;;;;;16.00;15.00;;;;;26.31;31.44;100973.00;2105126;28;47446;-63